sensor_id;sensor_type;location;lat;lon;timestamp;P1;durP1;ratioP1;P2;durP2;ratioP2
7377;SDS011;3730;50.856;12.776;2023-04-25T00:01:14;7.23;;;5.07;;
7377;SDS011;3730;50.856;12.776;2023-04-25T00:03:41;5.90;;;5.10;;
7377;SDS011;3730;50.856;12.776;2023-04-25T00:06:07;6.40;;;5.00;;
7377;SDS011;3730;50.856;12.776;2023-04-25T00:08:33;11.83;;;5.90;;
7377;SDS011;3730;50.856;12.776;2023-04-25T00:11:00;7.97;;;5.97;;
7377;SDS011;3730;50.856;12.776;2023-04-25T00:13:26;7.70;;;6.13;;
7377;SDS011;3730;50.856;12.776;2023-04-25T00:15:52;7.43;;;5.93;;
7377;SDS011;3730;50.856;12.776;2023-04-25T00:18:18;7.03;;;5.50;;
7377;SDS011;3730;50.856;12.776;2023-04-25T00:20:45;6.10;;;5.50;;
7377;SDS011;3730;50.856;12.776;2023-04-25T00:23:15;8.27;;;5.77;;
7377;SDS011;3730;50.856;12.776;2023-04-25T00:25:46;7.70;;;5.23;;
7377;SDS011;3730;50.856;12.776;2023-04-25T00:28:12;8.27;;;5.53;;
7377;SDS011;3730;50.856;12.776;2023-04-25T00:30:39;7.30;;;5.90;;
7377;SDS011;3730;50.856;12.776;2023-04-25T00:33:05;7.20;;;5.70;;
7377;SDS011;3730;50.856;12.776;2023-04-25T00:35:31;7.67;;;6.13;;
7377;SDS011;3730;50.856;12.776;2023-04-25T00:37:57;9.13;;;6.03;;
7377;SDS011;3730;50.856;12.776;2023-04-25T00:40:23;7.00;;;5.70;;
7377;SDS011;3730;50.856;12.776;2023-04-25T00:42:50;7.17;;;5.97;;
7377;SDS011;3730;50.856;12.776;2023-04-25T00:45:17;8.23;;;5.90;;
7377;SDS011;3730;50.856;12.776;2023-04-25T00:47:43;7.93;;;6.03;;
7377;SDS011;3730;50.856;12.776;2023-04-25T00:50:10;10.17;;;6.57;;
7377;SDS011;3730;50.856;12.776;2023-04-25T00:52:41;7.07;;;6.30;;
7377;SDS011;3730;50.856;12.776;2023-04-25T00:55:09;8.80;;;7.10;;
7377;SDS011;3730;50.856;12.776;2023-04-25T00:57:36;8.23;;;6.53;;
7377;SDS011;3730;50.856;12.776;2023-04-25T01:00:02;10.00;;;6.83;;
7377;SDS011;3730;50.856;12.776;2023-04-25T01:02:30;7.03;;;6.07;;
7377;SDS011;3730;50.856;12.776;2023-04-25T01:04:58;7.93;;;6.50;;
7377;SDS011;3730;50.856;12.776;2023-04-25T01:07:23;11.30;;;6.70;;
7377;SDS011;3730;50.856;12.776;2023-04-25T01:09:51;7.33;;;6.33;;
7377;SDS011;3730;50.856;12.776;2023-04-25T01:12:17;9.83;;;6.40;;
7377;SDS011;3730;50.856;12.776;2023-04-25T01:14:42;7.43;;;6.17;;
7377;SDS011;3730;50.856;12.776;2023-04-25T01:17:09;11.73;;;6.83;;
7377;SDS011;3730;50.856;12.776;2023-04-25T01:19:35;8.60;;;6.40;;
7377;SDS011;3730;50.856;12.776;2023-04-25T01:22:00;8.50;;;6.43;;
7377;SDS011;3730;50.856;12.776;2023-04-25T01:24:26;8.53;;;6.30;;
7377;SDS011;3730;50.856;12.776;2023-04-25T01:26:53;7.37;;;5.97;;
7377;SDS011;3730;50.856;12.776;2023-04-25T01:29:21;9.33;;;6.90;;
7377;SDS011;3730;50.856;12.776;2023-04-25T01:31:47;7.63;;;6.73;;
7377;SDS011;3730;50.856;12.776;2023-04-25T01:34:13;8.13;;;7.27;;
7377;SDS011;3730;50.856;12.776;2023-04-25T01:36:39;9.87;;;7.33;;
7377;SDS011;3730;50.856;12.776;2023-04-25T01:39:05;8.57;;;7.13;;
7377;SDS011;3730;50.856;12.776;2023-04-25T01:41:31;7.60;;;6.53;;
7377;SDS011;3730;50.856;12.776;2023-04-25T01:43:57;9.00;;;6.77;;
7377;SDS011;3730;50.856;12.776;2023-04-25T01:46:22;8.83;;;6.63;;
7377;SDS011;3730;50.856;12.776;2023-04-25T01:48:48;8.43;;;6.67;;
7377;SDS011;3730;50.856;12.776;2023-04-25T01:51:14;8.77;;;6.60;;
7377;SDS011;3730;50.856;12.776;2023-04-25T01:53:40;8.30;;;6.40;;
7377;SDS011;3730;50.856;12.776;2023-04-25T01:56:06;7.27;;;6.30;;
7377;SDS011;3730;50.856;12.776;2023-04-25T01:58:32;8.70;;;6.40;;
7377;SDS011;3730;50.856;12.776;2023-04-25T02:00:57;9.43;;;6.53;;
7377;SDS011;3730;50.856;12.776;2023-04-25T02:03:23;9.07;;;6.50;;
7377;SDS011;3730;50.856;12.776;2023-04-25T02:05:49;7.33;;;5.90;;
7377;SDS011;3730;50.856;12.776;2023-04-25T02:08:16;8.30;;;5.93;;
7377;SDS011;3730;50.856;12.776;2023-04-25T02:10:42;11.20;;;6.70;;
7377;SDS011;3730;50.856;12.776;2023-04-25T02:13:08;7.00;;;6.10;;
7377;SDS011;3730;50.856;12.776;2023-04-25T02:15:34;8.10;;;6.60;;
7377;SDS011;3730;50.856;12.776;2023-04-25T02:18:00;7.40;;;5.97;;
7377;SDS011;3730;50.856;12.776;2023-04-25T02:20:26;8.60;;;6.90;;
7377;SDS011;3730;50.856;12.776;2023-04-25T02:22:52;8.60;;;5.87;;
7377;SDS011;3730;50.856;12.776;2023-04-25T02:25:19;6.63;;;5.97;;
7377;SDS011;3730;50.856;12.776;2023-04-25T02:27:45;10.83;;;6.77;;
7377;SDS011;3730;50.856;12.776;2023-04-25T02:30:11;7.83;;;6.23;;
7377;SDS011;3730;50.856;12.776;2023-04-25T02:32:38;6.47;;;5.80;;
7377;SDS011;3730;50.856;12.776;2023-04-25T02:35:04;10.33;;;6.50;;
7377;SDS011;3730;50.856;12.776;2023-04-25T02:37:31;7.37;;;5.97;;
7377;SDS011;3730;50.856;12.776;2023-04-25T02:39:57;6.43;;;5.73;;
7377;SDS011;3730;50.856;12.776;2023-04-25T02:42:23;9.30;;;5.77;;
7377;SDS011;3730;50.856;12.776;2023-04-25T02:44:49;8.63;;;6.10;;
7377;SDS011;3730;50.856;12.776;2023-04-25T02:47:14;11.00;;;6.17;;
7377;SDS011;3730;50.856;12.776;2023-04-25T02:49:40;7.93;;;6.27;;
7377;SDS011;3730;50.856;12.776;2023-04-25T02:52:05;9.37;;;6.70;;
7377;SDS011;3730;50.856;12.776;2023-04-25T02:54:31;9.80;;;6.00;;
7377;SDS011;3730;50.856;12.776;2023-04-25T02:56:57;6.93;;;5.93;;
7377;SDS011;3730;50.856;12.776;2023-04-25T02:59:22;11.23;;;6.60;;
7377;SDS011;3730;50.856;12.776;2023-04-25T03:01:48;7.80;;;6.40;;
7377;SDS011;3730;50.856;12.776;2023-04-25T03:04:14;7.07;;;6.37;;
7377;SDS011;3730;50.856;12.776;2023-04-25T03:06:40;9.37;;;6.20;;
7377;SDS011;3730;50.856;12.776;2023-04-25T03:09:05;10.23;;;6.33;;
7377;SDS011;3730;50.856;12.776;2023-04-25T03:11:31;9.17;;;6.43;;
7377;SDS011;3730;50.856;12.776;2023-04-25T03:13:57;9.87;;;6.33;;
7377;SDS011;3730;50.856;12.776;2023-04-25T03:16:23;9.37;;;6.77;;
7377;SDS011;3730;50.856;12.776;2023-04-25T03:18:48;8.77;;;6.77;;
7377;SDS011;3730;50.856;12.776;2023-04-25T03:21:15;9.40;;;7.10;;
7377;SDS011;3730;50.856;12.776;2023-04-25T03:23:41;8.53;;;6.90;;
7377;SDS011;3730;50.856;12.776;2023-04-25T03:26:07;9.03;;;7.30;;
7377;SDS011;3730;50.856;12.776;2023-04-25T03:28:32;9.60;;;7.07;;
7377;SDS011;3730;50.856;12.776;2023-04-25T03:30:58;12.70;;;7.47;;
7377;SDS011;3730;50.856;12.776;2023-04-25T03:33:23;8.10;;;6.90;;
7377;SDS011;3730;50.856;12.776;2023-04-25T03:35:49;8.50;;;7.13;;
7377;SDS011;3730;50.856;12.776;2023-04-25T03:38:15;9.73;;;7.73;;
7377;SDS011;3730;50.856;12.776;2023-04-25T03:40:40;10.20;;;7.70;;
7377;SDS011;3730;50.856;12.776;2023-04-25T03:43:06;9.00;;;7.47;;
7377;SDS011;3730;50.856;12.776;2023-04-25T03:45:32;10.60;;;7.50;;
7377;SDS011;3730;50.856;12.776;2023-04-25T03:47:57;8.03;;;7.23;;
7377;SDS011;3730;50.856;12.776;2023-04-25T03:50:23;9.10;;;7.40;;
7377;SDS011;3730;50.856;12.776;2023-04-25T03:52:49;11.77;;;8.30;;
7377;SDS011;3730;50.856;12.776;2023-04-25T03:55:15;10.47;;;7.73;;
7377;SDS011;3730;50.856;12.776;2023-04-25T03:57:40;11.20;;;8.20;;
7377;SDS011;3730;50.856;12.776;2023-04-25T04:00:06;9.10;;;7.30;;
7377;SDS011;3730;50.856;12.776;2023-04-25T04:02:32;10.30;;;7.97;;
7377;SDS011;3730;50.856;12.776;2023-04-25T04:04:59;10.77;;;8.17;;
7377;SDS011;3730;50.856;12.776;2023-04-25T04:07:25;11.67;;;8.20;;
7377;SDS011;3730;50.856;12.776;2023-04-25T04:09:51;10.27;;;7.50;;
7377;SDS011;3730;50.856;12.776;2023-04-25T04:12:17;9.70;;;7.10;;
7377;SDS011;3730;50.856;12.776;2023-04-25T04:14:42;12.57;;;7.43;;
7377;SDS011;3730;50.856;12.776;2023-04-25T04:17:08;9.27;;;7.17;;
7377;SDS011;3730;50.856;12.776;2023-04-25T04:19:33;8.67;;;7.70;;
7377;SDS011;3730;50.856;12.776;2023-04-25T04:21:59;8.80;;;6.60;;
7377;SDS011;3730;50.856;12.776;2023-04-25T04:24:24;8.43;;;7.00;;
7377;SDS011;3730;50.856;12.776;2023-04-25T04:26:50;8.53;;;6.53;;
7377;SDS011;3730;50.856;12.776;2023-04-25T04:29:17;10.23;;;7.30;;
7377;SDS011;3730;50.856;12.776;2023-04-25T04:31:49;10.20;;;7.03;;
7377;SDS011;3730;50.856;12.776;2023-04-25T04:34:15;13.77;;;7.17;;
7377;SDS011;3730;50.856;12.776;2023-04-25T04:36:42;9.10;;;6.93;;
7377;SDS011;3730;50.856;12.776;2023-04-25T04:39:11;8.87;;;6.67;;
7377;SDS011;3730;50.856;12.776;2023-04-25T04:41:37;8.73;;;6.83;;
7377;SDS011;3730;50.856;12.776;2023-04-25T04:44:03;8.03;;;6.93;;
7377;SDS011;3730;50.856;12.776;2023-04-25T04:46:29;12.10;;;6.70;;
7377;SDS011;3730;50.856;12.776;2023-04-25T04:48:56;10.13;;;6.57;;
7377;SDS011;3730;50.856;12.776;2023-04-25T04:51:21;9.00;;;6.37;;
7377;SDS011;3730;50.856;12.776;2023-04-25T04:53:47;6.37;;;5.77;;
7377;SDS011;3730;50.856;12.776;2023-04-25T04:56:13;8.47;;;6.53;;
7377;SDS011;3730;50.856;12.776;2023-04-25T04:58:38;9.10;;;6.63;;
7377;SDS011;3730;50.856;12.776;2023-04-25T05:01:04;9.37;;;6.03;;
7377;SDS011;3730;50.856;12.776;2023-04-25T05:03:30;7.83;;;6.57;;
7377;SDS011;3730;50.856;12.776;2023-04-25T05:05:55;11.60;;;8.33;;
7377;SDS011;3730;50.856;12.776;2023-04-25T05:08:21;11.20;;;6.53;;
7377;SDS011;3730;50.856;12.776;2023-04-25T05:10:46;10.67;;;6.57;;
7377;SDS011;3730;50.856;12.776;2023-04-25T05:13:12;8.40;;;6.20;;
7377;SDS011;3730;50.856;12.776;2023-04-25T05:15:38;8.73;;;6.63;;
7377;SDS011;3730;50.856;12.776;2023-04-25T05:18:03;9.90;;;6.10;;
7377;SDS011;3730;50.856;12.776;2023-04-25T05:20:29;9.80;;;6.60;;
7377;SDS011;3730;50.856;12.776;2023-04-25T05:22:55;8.03;;;6.30;;
7377;SDS011;3730;50.856;12.776;2023-04-25T05:25:20;8.03;;;6.50;;
7377;SDS011;3730;50.856;12.776;2023-04-25T05:27:46;7.43;;;6.30;;
7377;SDS011;3730;50.856;12.776;2023-04-25T05:30:11;7.17;;;6.27;;
7377;SDS011;3730;50.856;12.776;2023-04-25T05:32:37;9.13;;;5.70;;
7377;SDS011;3730;50.856;12.776;2023-04-25T05:35:03;9.53;;;6.40;;
7377;SDS011;3730;50.856;12.776;2023-04-25T05:37:28;9.57;;;6.50;;
7377;SDS011;3730;50.856;12.776;2023-04-25T05:39:56;8.10;;;6.20;;
7377;SDS011;3730;50.856;12.776;2023-04-25T05:42:21;12.33;;;5.97;;
7377;SDS011;3730;50.856;12.776;2023-04-25T05:44:47;6.40;;;5.70;;
7377;SDS011;3730;50.856;12.776;2023-04-25T05:47:12;7.80;;;5.93;;
7377;SDS011;3730;50.856;12.776;2023-04-25T05:49:38;10.33;;;6.30;;
7377;SDS011;3730;50.856;12.776;2023-04-25T05:52:04;7.53;;;5.90;;
7377;SDS011;3730;50.856;12.776;2023-04-25T05:54:29;8.10;;;5.97;;
7377;SDS011;3730;50.856;12.776;2023-04-25T05:56:56;8.83;;;6.20;;
7377;SDS011;3730;50.856;12.776;2023-04-25T05:59:22;8.93;;;6.10;;
7377;SDS011;3730;50.856;12.776;2023-04-25T06:01:47;8.67;;;6.33;;
7377;SDS011;3730;50.856;12.776;2023-04-25T06:04:13;7.17;;;5.80;;
7377;SDS011;3730;50.856;12.776;2023-04-25T06:06:38;9.43;;;5.90;;
7377;SDS011;3730;50.856;12.776;2023-04-25T06:09:04;8.53;;;5.90;;
7377;SDS011;3730;50.856;12.776;2023-04-25T06:11:30;7.80;;;5.70;;
7377;SDS011;3730;50.856;12.776;2023-04-25T06:13:55;8.60;;;6.43;;
7377;SDS011;3730;50.856;12.776;2023-04-25T06:16:21;7.40;;;5.60;;
7377;SDS011;3730;50.856;12.776;2023-04-25T06:18:47;6.73;;;4.77;;
7377;SDS011;3730;50.856;12.776;2023-04-25T06:21:12;6.77;;;5.30;;
7377;SDS011;3730;50.856;12.776;2023-04-25T06:23:38;9.10;;;6.13;;
7377;SDS011;3730;50.856;12.776;2023-04-25T06:26:03;8.70;;;5.50;;
7377;SDS011;3730;50.856;12.776;2023-04-25T06:28:29;7.63;;;5.73;;
7377;SDS011;3730;50.856;12.776;2023-04-25T06:30:55;16.80;;;5.90;;
7377;SDS011;3730;50.856;12.776;2023-04-25T06:33:20;7.63;;;5.53;;
7377;SDS011;3730;50.856;12.776;2023-04-25T06:35:47;8.73;;;5.50;;
7377;SDS011;3730;50.856;12.776;2023-04-25T06:38:13;9.17;;;5.20;;
7377;SDS011;3730;50.856;12.776;2023-04-25T06:40:40;10.33;;;5.33;;
7377;SDS011;3730;50.856;12.776;2023-04-25T06:43:05;6.17;;;5.40;;
7377;SDS011;3730;50.856;12.776;2023-04-25T06:45:31;11.13;;;5.67;;
7377;SDS011;3730;50.856;12.776;2023-04-25T06:47:57;10.50;;;5.87;;
7377;SDS011;3730;50.856;12.776;2023-04-25T06:50:23;9.17;;;5.77;;
7377;SDS011;3730;50.856;12.776;2023-04-25T06:52:48;6.07;;;4.90;;
7377;SDS011;3730;50.856;12.776;2023-04-25T06:55:14;7.80;;;5.57;;
7377;SDS011;3730;50.856;12.776;2023-04-25T06:57:39;9.33;;;4.63;;
7377;SDS011;3730;50.856;12.776;2023-04-25T07:00:05;9.63;;;5.53;;
7377;SDS011;3730;50.856;12.776;2023-04-25T07:02:34;9.47;;;5.10;;
7377;SDS011;3730;50.856;12.776;2023-04-25T07:05:00;7.53;;;4.90;;
7377;SDS011;3730;50.856;12.776;2023-04-25T07:07:29;7.23;;;5.13;;
7377;SDS011;3730;50.856;12.776;2023-04-25T07:09:56;6.87;;;4.83;;
7377;SDS011;3730;50.856;12.776;2023-04-25T07:12:22;10.47;;;5.10;;
7377;SDS011;3730;50.856;12.776;2023-04-25T07:14:47;8.73;;;5.70;;
7377;SDS011;3730;50.856;12.776;2023-04-25T07:17:13;8.00;;;5.30;;
7377;SDS011;3730;50.856;12.776;2023-04-25T07:19:38;9.47;;;5.43;;
7377;SDS011;3730;50.856;12.776;2023-04-25T07:22:05;11.10;;;6.13;;
7377;SDS011;3730;50.856;12.776;2023-04-25T07:24:31;8.50;;;5.03;;
7377;SDS011;3730;50.856;12.776;2023-04-25T07:26:57;9.57;;;5.87;;
7377;SDS011;3730;50.856;12.776;2023-04-25T07:29:23;10.63;;;5.93;;
7377;SDS011;3730;50.856;12.776;2023-04-25T07:31:49;9.17;;;5.50;;
7377;SDS011;3730;50.856;12.776;2023-04-25T07:34:14;7.50;;;5.57;;
7377;SDS011;3730;50.856;12.776;2023-04-25T07:36:40;9.90;;;5.53;;
7377;SDS011;3730;50.856;12.776;2023-04-25T07:39:06;8.10;;;5.63;;
7377;SDS011;3730;50.856;12.776;2023-04-25T07:41:34;8.33;;;5.97;;
7377;SDS011;3730;50.856;12.776;2023-04-25T07:43:59;10.00;;;6.27;;
7377;SDS011;3730;50.856;12.776;2023-04-25T07:46:25;10.20;;;6.97;;
7377;SDS011;3730;50.856;12.776;2023-04-25T07:48:51;11.93;;;6.87;;
7377;SDS011;3730;50.856;12.776;2023-04-25T07:51:16;7.73;;;6.03;;
7377;SDS011;3730;50.856;12.776;2023-04-25T07:53:44;10.10;;;6.67;;
7377;SDS011;3730;50.856;12.776;2023-04-25T07:56:10;7.03;;;5.63;;
7377;SDS011;3730;50.856;12.776;2023-04-25T07:58:36;8.10;;;5.40;;
7377;SDS011;3730;50.856;12.776;2023-04-25T08:01:02;8.17;;;5.67;;
7377;SDS011;3730;50.856;12.776;2023-04-25T08:03:28;10.07;;;5.97;;
7377;SDS011;3730;50.856;12.776;2023-04-25T08:05:53;9.83;;;5.93;;
7377;SDS011;3730;50.856;12.776;2023-04-25T08:08:19;11.03;;;5.83;;
7377;SDS011;3730;50.856;12.776;2023-04-25T08:10:44;10.90;;;6.80;;
7377;SDS011;3730;50.856;12.776;2023-04-25T08:13:10;11.23;;;6.50;;
7377;SDS011;3730;50.856;12.776;2023-04-25T08:15:36;11.97;;;6.23;;
7377;SDS011;3730;50.856;12.776;2023-04-25T08:18:02;13.23;;;6.80;;
7377;SDS011;3730;50.856;12.776;2023-04-25T08:20:28;8.33;;;6.37;;
7377;SDS011;3730;50.856;12.776;2023-04-25T08:22:54;11.10;;;6.13;;
7377;SDS011;3730;50.856;12.776;2023-04-25T08:25:20;11.37;;;6.07;;
7377;SDS011;3730;50.856;12.776;2023-04-25T08:27:45;10.40;;;5.87;;
7377;SDS011;3730;50.856;12.776;2023-04-25T08:30:11;8.33;;;5.67;;
7377;SDS011;3730;50.856;12.776;2023-04-25T08:32:37;9.90;;;5.27;;
7377;SDS011;3730;50.856;12.776;2023-04-25T08:35:05;10.03;;;5.90;;
7377;SDS011;3730;50.856;12.776;2023-04-25T08:37:31;9.10;;;5.67;;
7377;SDS011;3730;50.856;12.776;2023-04-25T08:39:57;11.33;;;5.47;;
7377;SDS011;3730;50.856;12.776;2023-04-25T08:42:23;9.40;;;5.40;;
7377;SDS011;3730;50.856;12.776;2023-04-25T08:44:53;7.87;;;5.50;;
7377;SDS011;3730;50.856;12.776;2023-04-25T08:47:20;7.47;;;5.30;;
7377;SDS011;3730;50.856;12.776;2023-04-25T08:49:47;8.47;;;5.47;;
7377;SDS011;3730;50.856;12.776;2023-04-25T08:52:14;6.13;;;5.37;;
7377;SDS011;3730;50.856;12.776;2023-04-25T08:54:42;9.17;;;5.10;;
7377;SDS011;3730;50.856;12.776;2023-04-25T08:57:12;4.77;;;4.17;;
7377;SDS011;3730;50.856;12.776;2023-04-25T08:59:39;6.20;;;4.57;;
7377;SDS011;3730;50.856;12.776;2023-04-25T09:02:08;5.30;;;4.20;;
7377;SDS011;3730;50.856;12.776;2023-04-25T09:04:35;6.33;;;4.53;;
7377;SDS011;3730;50.856;12.776;2023-04-25T09:07:01;8.30;;;4.60;;
7377;SDS011;3730;50.856;12.776;2023-04-25T09:09:27;6.30;;;4.57;;
7377;SDS011;3730;50.856;12.776;2023-04-25T09:11:53;5.60;;;5.00;;
7377;SDS011;3730;50.856;12.776;2023-04-25T09:14:20;5.27;;;4.77;;
7377;SDS011;3730;50.856;12.776;2023-04-25T09:19:32;10.50;;;5.50;;
7377;SDS011;3730;50.856;12.776;2023-04-25T09:22:01;9.00;;;5.47;;
7377;SDS011;3730;50.856;12.776;2023-04-25T09:24:43;6.40;;;5.33;;
7377;SDS011;3730;50.856;12.776;2023-04-25T09:27:11;8.53;;;6.10;;
7377;SDS011;3730;50.856;12.776;2023-04-25T09:29:44;8.60;;;5.87;;
7377;SDS011;3730;50.856;12.776;2023-04-25T09:34:49;8.73;;;6.57;;
7377;SDS011;3730;50.856;12.776;2023-04-25T09:39:52;9.90;;;6.00;;
7377;SDS011;3730;50.856;12.776;2023-04-25T09:42:28;6.67;;;5.90;;
7377;SDS011;3730;50.856;12.776;2023-04-25T09:44:56;8.03;;;6.10;;
7377;SDS011;3730;50.856;12.776;2023-04-25T09:47:24;7.90;;;6.27;;
7377;SDS011;3730;50.856;12.776;2023-04-25T09:49:51;6.83;;;5.97;;
7377;SDS011;3730;50.856;12.776;2023-04-25T09:52:19;9.07;;;6.30;;
7377;SDS011;3730;50.856;12.776;2023-04-25T09:54:46;9.80;;;6.00;;
7377;SDS011;3730;50.856;12.776;2023-04-25T09:57:17;8.63;;;6.20;;
7377;SDS011;3730;50.856;12.776;2023-04-25T09:59:47;9.10;;;6.57;;
7377;SDS011;3730;50.856;12.776;2023-04-25T10:02:15;8.33;;;6.10;;
7377;SDS011;3730;50.856;12.776;2023-04-25T10:04:42;8.57;;;6.27;;
7377;SDS011;3730;50.856;12.776;2023-04-25T10:07:12;9.23;;;6.10;;
7377;SDS011;3730;50.856;12.776;2023-04-25T10:09:39;8.63;;;5.90;;
7377;SDS011;3730;50.856;12.776;2023-04-25T10:12:06;11.23;;;7.03;;
7377;SDS011;3730;50.856;12.776;2023-04-25T10:14:32;8.33;;;6.80;;
7377;SDS011;3730;50.856;12.776;2023-04-25T10:16:58;8.93;;;7.27;;
7377;SDS011;3730;50.856;12.776;2023-04-25T10:19:25;12.63;;;9.70;;
7377;SDS011;3730;50.856;12.776;2023-04-25T10:22:08;13.87;;;10.33;;
7377;SDS011;3730;50.856;12.776;2023-04-25T10:24:35;12.63;;;9.67;;
7377;SDS011;3730;50.856;12.776;2023-04-25T10:27:02;13.67;;;10.27;;
7377;SDS011;3730;50.856;12.776;2023-04-25T10:29:27;14.47;;;9.80;;
7377;SDS011;3730;50.856;12.776;2023-04-25T10:31:53;11.90;;;9.70;;
7377;SDS011;3730;50.856;12.776;2023-04-25T10:34:19;16.47;;;9.23;;
7377;SDS011;3730;50.856;12.776;2023-04-25T10:36:51;11.43;;;7.60;;
7377;SDS011;3730;50.856;12.776;2023-04-25T10:39:24;9.90;;;6.70;;
7377;SDS011;3730;50.856;12.776;2023-04-25T10:41:56;7.73;;;5.50;;
7377;SDS011;3730;50.856;12.776;2023-04-25T10:44:22;8.90;;;5.53;;
7377;SDS011;3730;50.856;12.776;2023-04-25T10:46:52;6.43;;;5.10;;
7377;SDS011;3730;50.856;12.776;2023-04-25T10:49:30;7.70;;;5.43;;
7377;SDS011;3730;50.856;12.776;2023-04-25T10:52:24;10.37;;;5.63;;
7377;SDS011;3730;50.856;12.776;2023-04-25T10:54:52;7.63;;;5.73;;
7377;SDS011;3730;50.856;12.776;2023-04-25T10:57:26;12.30;;;5.63;;
7377;SDS011;3730;50.856;12.776;2023-04-25T11:00:12;9.10;;;6.10;;
7377;SDS011;3730;50.856;12.776;2023-04-25T11:02:40;8.23;;;6.43;;
7377;SDS011;3730;50.856;12.776;2023-04-25T11:05:08;10.57;;;6.70;;
7377;SDS011;3730;50.856;12.776;2023-04-25T11:10:14;11.40;;;6.77;;
7377;SDS011;3730;50.856;12.776;2023-04-25T11:12:39;10.30;;;6.57;;
7377;SDS011;3730;50.856;12.776;2023-04-25T11:15:06;13.50;;;6.40;;
7377;SDS011;3730;50.856;12.776;2023-04-25T11:17:32;12.00;;;6.00;;
7377;SDS011;3730;50.856;12.776;2023-04-25T11:19:59;9.83;;;5.87;;
7377;SDS011;3730;50.856;12.776;2023-04-25T11:22:26;15.00;;;7.97;;
7377;SDS011;3730;50.856;12.776;2023-04-25T11:24:52;11.33;;;8.07;;
7377;SDS011;3730;50.856;12.776;2023-04-25T11:27:18;13.43;;;7.67;;
7377;SDS011;3730;50.856;12.776;2023-04-25T11:29:44;11.60;;;7.80;;
7377;SDS011;3730;50.856;12.776;2023-04-25T11:32:12;15.60;;;7.30;;
7377;SDS011;3730;50.856;12.776;2023-04-25T11:34:42;10.53;;;7.50;;
7377;SDS011;3730;50.856;12.776;2023-04-25T11:37:09;12.47;;;7.63;;
7377;SDS011;3730;50.856;12.776;2023-04-25T11:39:36;9.47;;;6.13;;
7377;SDS011;3730;50.856;12.776;2023-04-25T11:42:02;10.57;;;6.40;;
7377;SDS011;3730;50.856;12.776;2023-04-25T11:44:30;14.63;;;6.13;;
7377;SDS011;3730;50.856;12.776;2023-04-25T11:46:56;12.50;;;5.73;;
7377;SDS011;3730;50.856;12.776;2023-04-25T11:49:22;9.93;;;5.23;;
7377;SDS011;3730;50.856;12.776;2023-04-25T11:51:49;10.47;;;5.47;;
7377;SDS011;3730;50.856;12.776;2023-04-25T11:54:15;15.87;;;5.97;;
7377;SDS011;3730;50.856;12.776;2023-04-25T11:56:41;13.17;;;5.67;;
7377;SDS011;3730;50.856;12.776;2023-04-25T11:59:08;11.10;;;6.37;;
7377;SDS011;3730;50.856;12.776;2023-04-25T12:01:35;7.43;;;4.60;;
7377;SDS011;3730;50.856;12.776;2023-04-25T12:04:12;4.97;;;3.97;;
7377;SDS011;3730;50.856;12.776;2023-04-25T12:06:42;13.60;;;5.97;;
7377;SDS011;3730;50.856;12.776;2023-04-25T12:09:10;10.87;;;5.70;;
7377;SDS011;3730;50.856;12.776;2023-04-25T12:11:42;7.70;;;4.90;;
7377;SDS011;3730;50.856;12.776;2023-04-25T12:14:09;10.13;;;5.50;;
7377;SDS011;3730;50.856;12.776;2023-04-25T12:16:42;9.17;;;5.73;;
7377;SDS011;3730;50.856;12.776;2023-04-25T12:19:10;10.47;;;6.20;;
7377;SDS011;3730;50.856;12.776;2023-04-25T12:21:40;11.13;;;6.10;;
7377;SDS011;3730;50.856;12.776;2023-04-25T12:24:09;14.17;;;6.50;;
7377;SDS011;3730;50.856;12.776;2023-04-25T12:26:49;14.27;;;7.03;;
7377;SDS011;3730;50.856;12.776;2023-04-25T12:29:16;13.10;;;6.13;;
7377;SDS011;3730;50.856;12.776;2023-04-25T12:31:43;12.53;;;6.43;;
7377;SDS011;3730;50.856;12.776;2023-04-25T12:34:09;11.33;;;5.10;;
7377;SDS011;3730;50.856;12.776;2023-04-25T12:36:35;6.73;;;5.20;;
7377;SDS011;3730;50.856;12.776;2023-04-25T12:39:01;8.03;;;5.40;;
7377;SDS011;3730;50.856;12.776;2023-04-25T12:41:29;8.63;;;4.90;;
7377;SDS011;3730;50.856;12.776;2023-04-25T12:43:55;9.47;;;5.47;;
7377;SDS011;3730;50.856;12.776;2023-04-25T12:46:21;8.73;;;5.00;;
7377;SDS011;3730;50.856;12.776;2023-04-25T12:48:47;11.87;;;5.73;;
7377;SDS011;3730;50.856;12.776;2023-04-25T12:51:13;9.07;;;5.40;;
7377;SDS011;3730;50.856;12.776;2023-04-25T12:53:39;11.97;;;5.70;;
7377;SDS011;3730;50.856;12.776;2023-04-25T12:56:06;5.30;;;4.47;;
7377;SDS011;3730;50.856;12.776;2023-04-25T12:58:32;7.40;;;4.63;;
7377;SDS011;3730;50.856;12.776;2023-04-25T13:00:58;6.77;;;4.20;;
7377;SDS011;3730;50.856;12.776;2023-04-25T13:03:24;8.80;;;4.70;;
7377;SDS011;3730;50.856;12.776;2023-04-25T13:05:50;7.87;;;4.97;;
7377;SDS011;3730;50.856;12.776;2023-04-25T13:08:17;9.43;;;4.67;;
7377;SDS011;3730;50.856;12.776;2023-04-25T13:10:43;7.93;;;3.80;;
7377;SDS011;3730;50.856;12.776;2023-04-25T13:13:09;9.30;;;4.50;;
7377;SDS011;3730;50.856;12.776;2023-04-25T13:15:35;6.07;;;4.10;;
7377;SDS011;3730;50.856;12.776;2023-04-25T13:18:01;6.10;;;4.10;;
7377;SDS011;3730;50.856;12.776;2023-04-25T13:20:28;6.43;;;4.20;;
7377;SDS011;3730;50.856;12.776;2023-04-25T13:22:53;6.60;;;4.27;;
7377;SDS011;3730;50.856;12.776;2023-04-25T13:25:20;8.77;;;4.47;;
7377;SDS011;3730;50.856;12.776;2023-04-25T13:27:46;7.37;;;4.27;;
7377;SDS011;3730;50.856;12.776;2023-04-25T13:30:12;10.83;;;4.27;;
7377;SDS011;3730;50.856;12.776;2023-04-25T13:32:39;8.70;;;4.27;;
7377;SDS011;3730;50.856;12.776;2023-04-25T13:35:05;14.80;;;5.00;;
7377;SDS011;3730;50.856;12.776;2023-04-25T13:37:38;14.67;;;6.60;;
7377;SDS011;3730;50.856;12.776;2023-04-25T13:40:06;9.97;;;4.77;;
7377;SDS011;3730;50.856;12.776;2023-04-25T13:42:34;10.50;;;5.10;;
7377;SDS011;3730;50.856;12.776;2023-04-25T13:45:01;8.67;;;4.57;;
7377;SDS011;3730;50.856;12.776;2023-04-25T13:47:27;7.13;;;4.17;;
7377;SDS011;3730;50.856;12.776;2023-04-25T13:49:53;9.97;;;4.93;;
7377;SDS011;3730;50.856;12.776;2023-04-25T13:52:19;6.07;;;4.13;;
7377;SDS011;3730;50.856;12.776;2023-04-25T13:54:45;8.10;;;5.80;;
7377;SDS011;3730;50.856;12.776;2023-04-25T13:57:11;11.00;;;5.40;;
7377;SDS011;3730;50.856;12.776;2023-04-25T13:59:37;10.00;;;5.60;;
7377;SDS011;3730;50.856;12.776;2023-04-25T14:02:03;9.83;;;5.13;;
7377;SDS011;3730;50.856;12.776;2023-04-25T14:04:29;7.83;;;5.20;;
7377;SDS011;3730;50.856;12.776;2023-04-25T14:06:55;10.33;;;5.00;;
7377;SDS011;3730;50.856;12.776;2023-04-25T14:09:21;8.67;;;4.70;;
7377;SDS011;3730;50.856;12.776;2023-04-25T14:11:50;8.17;;;5.43;;
7377;SDS011;3730;50.856;12.776;2023-04-25T14:14:17;9.70;;;5.00;;
7377;SDS011;3730;50.856;12.776;2023-04-25T14:16:43;7.27;;;5.00;;
7377;SDS011;3730;50.856;12.776;2023-04-25T14:19:08;7.07;;;5.50;;
7377;SDS011;3730;50.856;12.776;2023-04-25T14:21:34;7.20;;;5.00;;
7377;SDS011;3730;50.856;12.776;2023-04-25T14:24:00;8.97;;;5.20;;
7377;SDS011;3730;50.856;12.776;2023-04-25T14:26:26;7.77;;;4.90;;
7377;SDS011;3730;50.856;12.776;2023-04-25T14:28:51;12.80;;;5.63;;
7377;SDS011;3730;50.856;12.776;2023-04-25T14:31:17;12.03;;;4.90;;
7377;SDS011;3730;50.856;12.776;2023-04-25T14:33:43;11.77;;;5.20;;
7377;SDS011;3730;50.856;12.776;2023-04-25T14:36:09;6.70;;;5.07;;
7377;SDS011;3730;50.856;12.776;2023-04-25T14:38:36;10.67;;;4.90;;
7377;SDS011;3730;50.856;12.776;2023-04-25T14:41:01;10.40;;;4.73;;
7377;SDS011;3730;50.856;12.776;2023-04-25T14:43:28;11.73;;;5.03;;
7377;SDS011;3730;50.856;12.776;2023-04-25T14:45:54;11.37;;;5.60;;
7377;SDS011;3730;50.856;12.776;2023-04-25T14:48:20;10.00;;;5.83;;
7377;SDS011;3730;50.856;12.776;2023-04-25T14:50:46;9.63;;;5.10;;
7377;SDS011;3730;50.856;12.776;2023-04-25T14:53:12;12.27;;;5.40;;
7377;SDS011;3730;50.856;12.776;2023-04-25T14:55:38;11.20;;;4.43;;
7377;SDS011;3730;50.856;12.776;2023-04-25T14:58:05;10.43;;;4.30;;
7377;SDS011;3730;50.856;12.776;2023-04-25T15:00:31;12.10;;;4.73;;
7377;SDS011;3730;50.856;12.776;2023-04-25T15:02:58;12.63;;;4.77;;
7377;SDS011;3730;50.856;12.776;2023-04-25T15:05:24;10.50;;;5.13;;